Wylie's Hourly Summary for Friday, March 17, 2017
Hour Temp
(f)
RH
(%)
Solar Rad.
(MJ/m2)
Rainfall
(in)
Wind
(mph)
3/17/2017 12:00 AM 64 79 0 0 8.36
3/17/2017 1:00 AM 64 81 0 0 9.37
3/17/2017 2:00 AM 63 85 0 0 8.93
3/17/2017 3:00 AM 62 90 0 0 7.36
3/17/2017 4:00 AM 65 80 0 0 8.8
3/17/2017 5:00 AM 66 78 0 0 9.93
3/17/2017 6:00 AM 66 77 0 0 9.23
3/17/2017 7:00 AM 67 76 0 0 9.11
3/17/2017 8:00 AM 67 74 0.01 0 9.42
3/17/2017 9:00 AM 67 73 0.19 0 9.56
3/17/2017 10:00 AM 67 74 0.48 0 9.71
3/17/2017 11:00 AM 68 72 0.77 0 10.17
3/17/2017 12:00 PM 69 71 0.77 0 11
3/17/2017 1:00 PM 71 68 0.97 0 10.99
3/17/2017 2:00 PM 71 69 0.74 0 10.16
3/17/2017 3:00 PM 72 67 1.24 0 10.97
3/17/2017 4:00 PM 72 67 1.07 0 11.55
3/17/2017 5:00 PM 73 65 0.96 0 10.56
3/17/2017 6:00 PM 73 65 0.5 0 8.44
3/17/2017 7:00 PM 74 61 0.27 0 6.77
3/17/2017 8:00 PM 73 61 0.02 0 4.41
3/17/2017 9:00 PM 73 62 0 0 3.06
3/17/2017 10:00 PM 72 63 0 0 2.93
3/17/2017 11:00 PM 71 64 0 0 1.7
Data Summary 68 71 7.99 0.00 8.44